sensor_id;sensor_type;location;lat;lon;timestamp;temperature;humidity
38854;DHT22;24606;51.992;4.198;2023-05-10T00:01:02;20.80;77.30
38854;DHT22;24606;51.992;4.198;2023-05-10T00:06:04;20.80;78.70
38854;DHT22;24606;51.992;4.198;2023-05-10T00:11:06;20.70;78.00
38854;DHT22;24606;51.992;4.198;2023-05-10T00:16:09;20.70;78.60
38854;DHT22;24606;51.992;4.198;2023-05-10T00:21:10;20.70;77.00
38854;DHT22;24606;51.992;4.198;2023-05-10T00:26:12;20.70;78.20
38854;DHT22;24606;51.992;4.198;2023-05-10T00:31:16;20.70;77.50
38854;DHT22;24606;51.992;4.198;2023-05-10T00:36:17;20.60;79.00
38854;DHT22;24606;51.992;4.198;2023-05-10T00:41:19;20.50;77.70
38854;DHT22;24606;51.992;4.198;2023-05-10T00:46:23;20.50;78.80
38854;DHT22;24606;51.992;4.198;2023-05-10T00:51:25;20.30;79.10
38854;DHT22;24606;51.992;4.198;2023-05-10T00:56:27;20.50;78.20
38854;DHT22;24606;51.992;4.198;2023-05-10T01:01:32;20.50;78.10
38854;DHT22;24606;51.992;4.198;2023-05-10T01:06:34;20.20;79.30
38854;DHT22;24606;51.992;4.198;2023-05-10T01:11:37;20.30;80.00
38854;DHT22;24606;51.992;4.198;2023-05-10T01:16:42;20.30;78.50
38854;DHT22;24606;51.992;4.198;2023-05-10T01:22:02;20.30;77.70
38854;DHT22;24606;51.992;4.198;2023-05-10T01:27:24;20.20;79.30
38854;DHT22;24606;51.992;4.198;2023-05-10T01:32:36;20.00;80.10
38854;DHT22;24606;51.992;4.198;2023-05-10T01:37:45;18.70;92.30
38854;DHT22;24606;51.992;4.198;2023-05-10T01:42:53;18.80;91.80
38854;DHT22;24606;51.992;4.198;2023-05-10T01:48:05;18.80;91.80
38854;DHT22;24606;51.992;4.198;2023-05-10T01:53:09;17.20;99.00
38854;DHT22;24606;51.992;4.198;2023-05-10T01:58:14;17.60;97.80
38854;DHT22;24606;51.992;4.198;2023-05-10T02:03:21;19.00;91.50
38854;DHT22;24606;51.992;4.198;2023-05-10T02:08:24;18.70;92.30
38854;DHT22;24606;51.992;4.198;2023-05-10T02:13:27;19.00;91.10
38854;DHT22;24606;51.992;4.198;2023-05-10T02:18:32;18.70;93.90
38854;DHT22;24606;51.992;4.198;2023-05-10T02:23:36;19.30;87.90
38854;DHT22;24606;51.992;4.198;2023-05-10T02:28:40;19.80;83.90
38854;DHT22;24606;51.992;4.198;2023-05-10T02:33:44;19.40;88.60
38854;DHT22;24606;51.992;4.198;2023-05-10T02:38:48;18.60;93.50
38854;DHT22;24606;51.992;4.198;2023-05-10T02:43:54;18.90;91.00
38854;DHT22;24606;51.992;4.198;2023-05-10T02:48:58;17.30;99.90
38854;DHT22;24606;51.992;4.198;2023-05-10T02:54:06;15.80;99.90
38854;DHT22;24606;51.992;4.198;2023-05-10T02:59:09;16.60;99.90
38854;DHT22;24606;51.992;4.198;2023-05-10T03:04:12;16.30;99.90
38854;DHT22;24606;51.992;4.198;2023-05-10T03:09:14;17.10;99.90
38854;DHT22;24606;51.992;4.198;2023-05-10T03:14:23;17.30;99.90
38854;DHT22;24606;51.992;4.198;2023-05-10T03:19:34;17.70;97.20
38854;DHT22;24606;51.992;4.198;2023-05-10T03:24:39;18.60;93.40
38854;DHT22;24606;51.992;4.198;2023-05-10T03:29:43;18.80;92.90
38854;DHT22;24606;51.992;4.198;2023-05-10T03:34:48;18.50;94.00
38854;DHT22;24606;51.992;4.198;2023-05-10T03:39:50;17.30;99.20
38854;DHT22;24606;51.992;4.198;2023-05-10T03:44:52;16.80;99.90
38854;DHT22;24606;51.992;4.198;2023-05-10T03:49:55;17.60;98.00
38854;DHT22;24606;51.992;4.198;2023-05-10T03:54:57;16.70;99.90
38854;DHT22;24606;51.992;4.198;2023-05-10T03:59:59;15.60;99.90
38854;DHT22;24606;51.992;4.198;2023-05-10T04:05:02;17.10;99.90
38854;DHT22;24606;51.992;4.198;2023-05-10T04:10:05;16.90;99.90
38854;DHT22;24606;51.992;4.198;2023-05-10T04:15:08;17.30;99.60
38854;DHT22;24606;51.992;4.198;2023-05-10T04:20:12;17.80;97.30
38854;DHT22;24606;51.992;4.198;2023-05-10T04:25:14;18.60;93.00
38854;DHT22;24606;51.992;4.198;2023-05-10T04:30:16;16.40;99.90
38854;DHT22;24606;51.992;4.198;2023-05-10T04:35:19;16.00;99.90
38854;DHT22;24606;51.992;4.198;2023-05-10T04:40:21;16.90;99.90
38854;DHT22;24606;51.992;4.198;2023-05-10T04:45:23;16.60;99.90
38854;DHT22;24606;51.992;4.198;2023-05-10T04:50:27;17.40;99.30
38854;DHT22;24606;51.992;4.198;2023-05-10T04:55:28;16.50;99.90
38854;DHT22;24606;51.992;4.198;2023-05-10T05:00:30;17.90;98.80
38854;DHT22;24606;51.992;4.198;2023-05-10T05:05:33;16.20;99.90
38854;DHT22;24606;51.992;4.198;2023-05-10T05:10:35;17.70;99.20
38854;DHT22;24606;51.992;4.198;2023-05-10T05:15:37;17.40;99.90
38854;DHT22;24606;51.992;4.198;2023-05-10T05:20:42;16.80;99.90
38854;DHT22;24606;51.992;4.198;2023-05-10T05:25:43;16.60;99.90
38854;DHT22;24606;51.992;4.198;2023-05-10T05:30:45;17.60;99.10
38854;DHT22;24606;51.992;4.198;2023-05-10T05:35:49;17.30;99.90
38854;DHT22;24606;51.992;4.198;2023-05-10T05:40:51;18.20;96.40
38854;DHT22;24606;51.992;4.198;2023-05-10T05:45:53;18.40;94.90
38854;DHT22;24606;51.992;4.198;2023-05-10T05:50:57;19.10;91.10
38854;DHT22;24606;51.992;4.198;2023-05-10T05:55:59;17.50;98.80
38854;DHT22;24606;51.992;4.198;2023-05-10T06:01:00;18.40;95.40
38854;DHT22;24606;51.992;4.198;2023-05-10T06:06:04;18.80;92.20
38854;DHT22;24606;51.992;4.198;2023-05-10T06:11:06;17.70;98.30
38854;DHT22;24606;51.992;4.198;2023-05-10T06:16:08;18.40;94.90
38854;DHT22;24606;51.992;4.198;2023-05-10T06:21:11;18.80;92.20
38854;DHT22;24606;51.992;4.198;2023-05-10T06:26:13;18.90;92.40
38854;DHT22;24606;51.992;4.198;2023-05-10T06:31:15;19.10;90.40
38854;DHT22;24606;51.992;4.198;2023-05-10T06:36:18;18.20;95.90
38854;DHT22;24606;51.992;4.198;2023-05-10T06:41:20;17.40;99.70
38854;DHT22;24606;51.992;4.198;2023-05-10T06:46:22;17.40;99.90
38854;DHT22;24606;51.992;4.198;2023-05-10T06:51:26;18.40;95.00
38854;DHT22;24606;51.992;4.198;2023-05-10T06:56:28;19.00;91.80
38854;DHT22;24606;51.992;4.198;2023-05-10T07:01:29;18.00;99.00
38854;DHT22;24606;51.992;4.198;2023-05-10T07:06:32;16.90;99.90
38854;DHT22;24606;51.992;4.198;2023-05-10T07:11:34;16.70;99.90
38854;DHT22;24606;51.992;4.198;2023-05-10T07:16:37;18.20;96.00
38854;DHT22;24606;51.992;4.198;2023-05-10T07:21:41;18.20;95.90
38854;DHT22;24606;51.992;4.198;2023-05-10T07:26:43;17.30;99.90
38854;DHT22;24606;51.992;4.198;2023-05-10T07:31:45;18.60;95.70
38854;DHT22;24606;51.992;4.198;2023-05-10T07:36:48;19.70;93.80
38854;DHT22;24606;51.992;4.198;2023-05-10T07:41:50;19.80;92.90
38854;DHT22;24606;51.992;4.198;2023-05-10T07:46:52;19.40;96.70
38854;DHT22;24606;51.992;4.198;2023-05-10T07:51:55;18.90;96.40
38854;DHT22;24606;51.992;4.198;2023-05-10T07:56:57;17.00;99.90
38854;DHT22;24606;51.992;4.198;2023-05-10T08:02:00;18.30;99.40
38854;DHT22;24606;51.992;4.198;2023-05-10T08:07:03;17.10;99.90
38854;DHT22;24606;51.992;4.198;2023-05-10T08:12:05;17.90;99.90
38854;DHT22;24606;51.992;4.198;2023-05-10T08:17:07;19.30;96.30
38854;DHT22;24606;51.992;4.198;2023-05-10T08:22:10;20.20;91.80
38854;DHT22;24606;51.992;4.198;2023-05-10T08:27:12;20.10;91.80
38854;DHT22;24606;51.992;4.198;2023-05-10T08:32:14;20.20;91.10
38854;DHT22;24606;51.992;4.198;2023-05-10T08:37:17;19.50;91.60
38854;DHT22;24606;51.992;4.198;2023-05-10T08:42:19;19.50;95.90
38854;DHT22;24606;51.992;4.198;2023-05-10T08:47:25;20.30;92.10
38854;DHT22;24606;51.992;4.198;2023-05-10T08:52:30;19.80;93.00
38854;DHT22;24606;51.992;4.198;2023-05-10T08:57:32;20.30;91.00
38854;DHT22;24606;51.992;4.198;2023-05-10T09:02:34;20.20;90.70
38854;DHT22;24606;51.992;4.198;2023-05-10T09:07:38;19.50;93.40
38854;DHT22;24606;51.992;4.198;2023-05-10T09:12:40;20.70;88.50
38854;DHT22;24606;51.992;4.198;2023-05-10T09:17:44;20.20;90.70
38854;DHT22;24606;51.992;4.198;2023-05-10T09:22:48;20.40;89.70
38854;DHT22;24606;51.992;4.198;2023-05-10T09:27:52;20.20;91.10
38854;DHT22;24606;51.992;4.198;2023-05-10T09:32:55;20.30;89.70
38854;DHT22;24606;51.992;4.198;2023-05-10T09:38:00;19.60;93.30
38854;DHT22;24606;51.992;4.198;2023-05-10T09:43:04;20.20;91.00
38854;DHT22;24606;51.992;4.198;2023-05-10T09:48:07;21.00;85.30
38854;DHT22;24606;51.992;4.198;2023-05-10T09:53:10;19.90;91.90
38854;DHT22;24606;51.992;4.198;2023-05-10T09:58:15;19.20;95.00
38854;DHT22;24606;51.992;4.198;2023-05-10T10:03:19;19.50;94.90
38854;DHT22;24606;51.992;4.198;2023-05-10T10:08:23;19.90;93.00
38854;DHT22;24606;51.992;4.198;2023-05-10T10:13:24;19.80;93.70
38854;DHT22;24606;51.992;4.198;2023-05-10T10:18:26;18.90;97.50
38854;DHT22;24606;51.992;4.198;2023-05-10T10:23:30;19.60;93.50
38854;DHT22;24606;51.992;4.198;2023-05-10T10:28:38;19.80;92.20
38854;DHT22;24606;51.992;4.198;2023-05-10T10:33:55;19.90;93.20
38854;DHT22;24606;51.992;4.198;2023-05-10T10:39:01;19.50;95.00
38854;DHT22;24606;51.992;4.198;2023-05-10T10:44:22;20.00;92.50
38854;DHT22;24606;51.992;4.198;2023-05-10T10:49:25;19.60;92.60
38854;DHT22;24606;51.992;4.198;2023-05-10T10:54:28;19.00;94.00
38854;DHT22;24606;51.992;4.198;2023-05-10T10:59:30;19.60;92.30
38854;DHT22;24606;51.992;4.198;2023-05-10T11:04:41;18.70;95.80
38854;DHT22;24606;51.992;4.198;2023-05-10T11:09:46;18.10;99.90
38854;DHT22;24606;51.992;4.198;2023-05-10T11:14:50;17.70;99.90
38854;DHT22;24606;51.992;4.198;2023-05-10T11:20:07;17.80;99.90
38854;DHT22;24606;51.992;4.198;2023-05-10T11:25:11;19.30;95.00
38854;DHT22;24606;51.992;4.198;2023-05-10T11:30:14;18.50;98.90
38854;DHT22;24606;51.992;4.198;2023-05-10T11:35:16;18.60;97.20
38854;DHT22;24606;51.992;4.198;2023-05-10T11:40:21;19.30;95.20
38854;DHT22;24606;51.992;4.198;2023-05-10T11:45:25;19.40;94.80
38854;DHT22;24606;51.992;4.198;2023-05-10T11:50:28;19.20;95.20
38854;DHT22;24606;51.992;4.198;2023-05-10T11:55:34;20.20;90.80
38854;DHT22;24606;51.992;4.198;2023-05-10T12:00:36;19.60;92.50
38854;DHT22;24606;51.992;4.198;2023-05-10T12:05:38;19.10;94.90
38854;DHT22;24606;51.992;4.198;2023-05-10T12:10:43;19.10;96.40
38854;DHT22;24606;51.992;4.198;2023-05-10T12:15:45;19.40;92.70
38854;DHT22;24606;51.992;4.198;2023-05-10T12:20:47;18.50;98.30
38854;DHT22;24606;51.992;4.198;2023-05-10T12:25:50;19.30;95.70
38854;DHT22;24606;51.992;4.198;2023-05-10T12:30:54;20.20;91.10
38854;DHT22;24606;51.992;4.198;2023-05-10T12:35:59;19.10;94.60
38854;DHT22;24606;51.992;4.198;2023-05-10T12:41:03;18.40;99.30
38854;DHT22;24606;51.992;4.198;2023-05-10T12:46:06;19.70;93.60
38854;DHT22;24606;51.992;4.198;2023-05-10T12:51:09;19.60;93.70
38854;DHT22;24606;51.992;4.198;2023-05-10T12:56:14;20.30;90.50
38854;DHT22;24606;51.992;4.198;2023-05-10T13:01:16;19.90;92.20
38854;DHT22;24606;51.992;4.198;2023-05-10T13:06:18;20.10;90.70
38854;DHT22;24606;51.992;4.198;2023-05-10T13:11:21;18.50;97.30
38854;DHT22;24606;51.992;4.198;2023-05-10T13:16:23;19.80;93.70
38854;DHT22;24606;51.992;4.198;2023-05-10T13:21:25;19.50;92.40
38854;DHT22;24606;51.992;4.198;2023-05-10T13:26:28;19.80;91.30
38854;DHT22;24606;51.992;4.198;2023-05-10T13:31:30;19.70;92.90
38854;DHT22;24606;51.992;4.198;2023-05-10T13:36:32;19.80;92.80
38854;DHT22;24606;51.992;4.198;2023-05-10T13:41:35;18.30;99.30
38854;DHT22;24606;51.992;4.198;2023-05-10T13:46:37;18.80;97.50
38854;DHT22;24606;51.992;4.198;2023-05-10T13:51:39;18.80;99.10
38854;DHT22;24606;51.992;4.198;2023-05-10T13:56:42;19.00;97.60
38854;DHT22;24606;51.992;4.198;2023-05-10T14:01:44;18.50;99.20
38854;DHT22;24606;51.992;4.198;2023-05-10T14:06:46;19.20;94.30
38854;DHT22;24606;51.992;4.198;2023-05-10T14:11:49;18.90;99.90
38854;DHT22;24606;51.992;4.198;2023-05-10T14:16:51;18.00;99.90
38854;DHT22;24606;51.992;4.198;2023-05-10T14:21:53;18.90;97.80
38854;DHT22;24606;51.992;4.198;2023-05-10T14:26:56;18.50;99.50
38854;DHT22;24606;51.992;4.198;2023-05-10T14:31:59;18.80;99.90
38854;DHT22;24606;51.992;4.198;2023-05-10T14:37:01;18.50;99.90
38854;DHT22;24606;51.992;4.198;2023-05-10T14:42:04;19.60;94.40
38854;DHT22;24606;51.992;4.198;2023-05-10T14:47:06;18.50;98.20
38854;DHT22;24606;51.992;4.198;2023-05-10T14:52:08;18.80;99.90
38854;DHT22;24606;51.992;4.198;2023-05-10T14:57:11;18.80;99.00
38854;DHT22;24606;51.992;4.198;2023-05-10T15:02:13;18.20;99.90
38854;DHT22;24606;51.992;4.198;2023-05-10T15:07:15;19.40;97.20
38854;DHT22;24606;51.992;4.198;2023-05-10T15:12:20;18.40;99.90
38854;DHT22;24606;51.992;4.198;2023-05-10T15:17:22;19.00;97.70
38854;DHT22;24606;51.992;4.198;2023-05-10T15:22:23;19.10;96.00
38854;DHT22;24606;51.992;4.198;2023-05-10T15:27:27;19.50;94.70
38854;DHT22;24606;51.992;4.198;2023-05-10T15:32:29;19.70;97.00
38854;DHT22;24606;51.992;4.198;2023-05-10T15:37:31;19.20;99.90
38854;DHT22;24606;51.992;4.198;2023-05-10T15:42:34;20.30;95.30
38854;DHT22;24606;51.992;4.198;2023-05-10T15:47:36;19.50;96.40
38854;DHT22;24606;51.992;4.198;2023-05-10T15:52:39;20.00;97.80
38854;DHT22;24606;51.992;4.198;2023-05-10T15:57:43;20.80;90.60
38854;DHT22;24606;51.992;4.198;2023-05-10T16:02:45;19.90;97.90
38854;DHT22;24606;51.992;4.198;2023-05-10T16:07:47;20.90;91.70
38854;DHT22;24606;51.992;4.198;2023-05-10T16:12:52;19.90;93.40
38854;DHT22;24606;51.992;4.198;2023-05-10T16:17:54;20.20;98.00
38854;DHT22;24606;51.992;4.198;2023-05-10T16:22:56;20.20;97.80
38854;DHT22;24606;51.992;4.198;2023-05-10T16:27:59;20.90;90.70
38854;DHT22;24606;51.992;4.198;2023-05-10T16:33:02;20.70;90.10
38854;DHT22;24606;51.992;4.198;2023-05-10T16:38:04;20.80;94.20
38854;DHT22;24606;51.992;4.198;2023-05-10T16:43:07;19.80;95.50
38854;DHT22;24606;51.992;4.198;2023-05-10T16:48:09;20.40;97.20
38854;DHT22;24606;51.992;4.198;2023-05-10T16:53:11;21.20;92.40
38854;DHT22;24606;51.992;4.198;2023-05-10T16:58:15;22.20;86.20
38854;DHT22;24606;51.992;4.198;2023-05-10T17:03:16;20.90;79.50
38854;DHT22;24606;51.992;4.198;2023-05-10T17:08:18;21.20;92.50
38854;DHT22;24606;51.992;4.198;2023-05-10T17:13:21;21.90;89.00
38854;DHT22;24606;51.992;4.198;2023-05-10T17:18:23;21.20;86.20
38854;DHT22;24606;51.992;4.198;2023-05-10T17:23:26;21.80;90.40
38854;DHT22;24606;51.992;4.198;2023-05-10T17:28:29;22.40;85.70
38854;DHT22;24606;51.992;4.198;2023-05-10T17:33:31;22.40;85.10
38854;DHT22;24606;51.992;4.198;2023-05-10T17:38:34;22.30;85.10
38854;DHT22;24606;51.992;4.198;2023-05-10T17:43:38;22.10;89.70
38854;DHT22;24606;51.992;4.198;2023-05-10T17:48:39;21.10;94.50
38854;DHT22;24606;51.992;4.198;2023-05-10T17:53:41;22.00;91.20
38854;DHT22;24606;51.992;4.198;2023-05-10T17:58:45;21.60;93.40
38854;DHT22;24606;51.992;4.198;2023-05-10T18:03:48;20.70;90.20
38854;DHT22;24606;51.992;4.198;2023-05-10T18:08:51;19.50;97.10
38854;DHT22;24606;51.992;4.198;2023-05-10T18:13:54;19.90;99.90
38854;DHT22;24606;51.992;4.198;2023-05-10T18:18:56;21.90;93.00
38854;DHT22;24606;51.992;4.198;2023-05-10T18:23:58;22.60;86.20
38854;DHT22;24606;51.992;4.198;2023-05-10T18:29:01;22.70;83.90
38854;DHT22;24606;51.992;4.198;2023-05-10T18:34:03;23.00;79.80
38854;DHT22;24606;51.992;4.198;2023-05-10T18:39:06;23.10;78.50
38854;DHT22;24606;51.992;4.198;2023-05-10T18:44:11;23.10;77.40
38854;DHT22;24606;51.992;4.198;2023-05-10T18:49:14;23.10;77.50
38854;DHT22;24606;51.992;4.198;2023-05-10T18:54:16;23.10;77.20
38854;DHT22;24606;51.992;4.198;2023-05-10T18:59:19;23.00;78.20
38854;DHT22;24606;51.992;4.198;2023-05-10T19:04:21;23.10;77.10
38854;DHT22;24606;51.992;4.198;2023-05-10T19:09:24;23.00;77.80
38854;DHT22;24606;51.992;4.198;2023-05-10T19:14:28;22.80;78.80
38854;DHT22;24606;51.992;4.198;2023-05-10T19:19:30;23.00;81.50
38854;DHT22;24606;51.992;4.198;2023-05-10T19:24:32;23.10;77.30
38854;DHT22;24606;51.992;4.198;2023-05-10T19:29:35;23.10;76.00
38854;DHT22;24606;51.992;4.198;2023-05-10T19:34:37;23.10;75.30
38854;DHT22;24606;51.992;4.198;2023-05-10T19:39:39;23.10;74.80
38854;DHT22;24606;51.992;4.198;2023-05-10T19:44:42;22.90;74.10
38854;DHT22;24606;51.992;4.198;2023-05-10T19:49:44;23.00;74.70
38854;DHT22;24606;51.992;4.198;2023-05-10T19:54:46;23.00;74.70
38854;DHT22;24606;51.992;4.198;2023-05-10T19:59:49;23.00;74.40
38854;DHT22;24606;51.992;4.198;2023-05-10T20:04:51;23.00;73.90
38854;DHT22;24606;51.992;4.198;2023-05-10T20:09:53;23.00;73.80
38854;DHT22;24606;51.992;4.198;2023-05-10T20:14:56;22.90;73.60
38854;DHT22;24606;51.992;4.198;2023-05-10T20:19:58;22.90;73.50
38854;DHT22;24606;51.992;4.198;2023-05-10T20:25:00;22.90;73.50
38854;DHT22;24606;51.992;4.198;2023-05-10T20:30:04;22.90;73.50
38854;DHT22;24606;51.992;4.198;2023-05-10T20:35:08;22.90;73.50
38854;DHT22;24606;51.992;4.198;2023-05-10T20:40:10;22.80;73.30
38854;DHT22;24606;51.992;4.198;2023-05-10T20:45:14;22.80;73.30
38854;DHT22;24606;51.992;4.198;2023-05-10T20:50:15;22.80;73.30
38854;DHT22;24606;51.992;4.198;2023-05-10T20:55:17;22.80;73.30
38854;DHT22;24606;51.992;4.198;2023-05-10T21:00:21;22.80;73.30
38854;DHT22;24606;51.992;4.198;2023-05-10T21:05:22;22.80;73.30
38854;DHT22;24606;51.992;4.198;2023-05-10T21:10:25;22.80;73.30
38854;DHT22;24606;51.992;4.198;2023-05-10T21:15:29;22.70;73.30
38854;DHT22;24606;51.992;4.198;2023-05-10T21:20:31;22.70;73.30
38854;DHT22;24606;51.992;4.198;2023-05-10T21:25:32;22.70;73.30
38854;DHT22;24606;51.992;4.198;2023-05-10T21:30:36;22.70;73.30
38854;DHT22;24606;51.992;4.198;2023-05-10T21:35:38;22.70;73.40
38854;DHT22;24606;51.992;4.198;2023-05-10T21:40:42;22.70;73.20
38854;DHT22;24606;51.992;4.198;2023-05-10T21:45:45;22.60;73.20
38854;DHT22;24606;51.992;4.198;2023-05-10T21:50:47;22.60;73.20
38854;DHT22;24606;51.992;4.198;2023-05-10T21:55:49;22.60;73.20
38854;DHT22;24606;51.992;4.198;2023-05-10T22:00:53;22.60;73.20
38854;DHT22;24606;51.992;4.198;2023-05-10T22:05:54;22.60;73.20
38854;DHT22;24606;51.992;4.198;2023-05-10T22:10:56;22.60;73.20
38854;DHT22;24606;51.992;4.198;2023-05-10T22:15:59;22.50;73.20
38854;DHT22;24606;51.992;4.198;2023-05-10T22:21:01;22.50;73.30
38854;DHT22;24606;51.992;4.198;2023-05-10T22:26:03;22.50;73.10
38854;DHT22;24606;51.992;4.198;2023-05-10T22:31:09;22.50;73.10
38854;DHT22;24606;51.992;4.198;2023-05-10T22:36:11;22.50;73.40
38854;DHT22;24606;51.992;4.198;2023-05-10T22:41:15;22.50;73.20
38854;DHT22;24606;51.992;4.198;2023-05-10T22:46:18;22.40;73.20
38854;DHT22;24606;51.992;4.198;2023-05-10T22:51:20;22.40;73.30
38854;DHT22;24606;51.992;4.198;2023-05-10T22:56:22;22.40;73.20
38854;DHT22;24606;51.992;4.198;2023-05-10T23:01:25;22.40;73.30
38854;DHT22;24606;51.992;4.198;2023-05-10T23:06:27;22.30;73.40
38854;DHT22;24606;51.992;4.198;2023-05-10T23:11:29;22.30;73.40
38854;DHT22;24606;51.992;4.198;2023-05-10T23:16:32;22.30;73.30
38854;DHT22;24606;51.992;4.198;2023-05-10T23:21:35;22.30;73.50
38854;DHT22;24606;51.992;4.198;2023-05-10T23:26:36;22.30;73.50
38854;DHT22;24606;51.992;4.198;2023-05-10T23:31:40;22.30;73.50
38854;DHT22;24606;51.992;4.198;2023-05-10T23:36:45;22.30;73.60
38854;DHT22;24606;51.992;4.198;2023-05-10T23:41:46;22.20;73.60
38854;DHT22;24606;51.992;4.198;2023-05-10T23:46:50;22.20;73.70
38854;DHT22;24606;51.992;4.198;2023-05-10T23:51:52;22.20;73.70
38854;DHT22;24606;51.992;4.198;2023-05-10T23:56:54;22.20;73.60
